Overview Statistics Trail Chart Weather Telemetry Raw packets
 

This is the latest recevied weather packets stored in our database for station/object K8WEH. If no packets are shown the sender has not sent any weather packets the latest 10 day(s).

<< 10 11 12 13 14 15 16 >>
Time Temp. Humidity Pressure Rain* Wind** Luminosity Snow
1788547511 26.67° C 72% 1016.5 hPa 0 mm - - -
1788547210 27.22° C 72% 1016.7 hPa 0 mm - - -
1788546908 27.78° C 72% 1016.2 hPa 0 mm - - -
1788546607 28.33° C 69% 1015.7 hPa 0 mm - - -
1788546305 28.89° C 69% 1016 hPa 0 mm - - -
1788546003 29.44° C 68% 1015.7 hPa 0 mm - - -
1788545702 30° C 70% 1015.6 hPa 0 mm - - -
1788545462 30.56° C 70% 1015.3 hPa 0 mm - - -
1788545160 31.11° C 65% 1015.6 hPa 0 mm - - -
1788544870 32.78° C 64% 1015.5 hPa 0 mm - - -
1788544556 33.33° C 61% 1015.7 hPa 0 mm - - -
1788544257 33.33° C 60% 1015.8 hPa 0 mm - - -
1788543975 34.44° C 59% 1016 hPa 0 mm - - -
1788543651 34.44° C 58% 1016 hPa 0 mm - - -
1788543351 34.44° C 61% 1016 hPa 0 mm - - -
1788543048 34.44° C 62% 1016.2 hPa 0 mm - - -
1788542747 34.44° C 60% 1016.5 hPa 0 mm - - -
1788542446 33.89° C 66% 1016.5 hPa 0 mm - - -
1788542145 33.89° C 62% 1016.5 hPa 0 mm - - -
1788541844 33.33° C 66% 1016.6 hPa 0 mm - - -
1788541541 32.78° C 69% 1016.5 hPa 0 mm - - -
1788541248 32.78° C 66% 1016.6 hPa 0 mm - - -
1788540939 32.22° C 69% 1016.6 hPa 0 mm - - -
1788540637 32.22° C 69% 1016.6 hPa 0 mm - - -
1788540336 31.67° C 70% 1016.6 hPa 0 mm - - -

* Rain latest hour (hover to see other rain measurements)
** Current wind speed in m/s (hover to see current wind gust speed)